createdAt,value
2023-01-22T00:00:32.855Z,15.07
2023-01-22T00:05:36.499Z,10.87
2023-01-22T00:10:41.228Z,12.13
2023-01-22T00:15:44.606Z,15.60
2023-01-22T00:20:48.627Z,10.40
2023-01-22T00:26:02.060Z,14.13
2023-01-22T00:31:07.642Z,12.63
2023-01-22T00:36:12.754Z,9.00
2023-01-22T00:41:19.700Z,9.17
2023-01-22T00:46:23.235Z,14.63
2023-01-22T00:51:27.000Z,9.00
2023-01-22T00:56:31.916Z,12.37
2023-01-22T01:01:35.595Z,8.73
2023-01-22T01:06:39.286Z,10.63
2023-01-22T01:11:44.590Z,12.13
2023-01-22T01:16:48.347Z,8.83
2023-01-22T01:21:52.319Z,9.30
2023-01-22T01:26:57.061Z,13.23
2023-01-22T01:32:00.791Z,15.67
2023-01-22T01:37:04.207Z,10.83
2023-01-22T01:42:09.271Z,13.17
2023-01-22T01:47:32.231Z,13.57
2023-01-22T01:52:35.835Z,9.07
2023-01-22T01:57:42.727Z,8.03
2023-01-22T02:02:46.742Z,11.07
2023-01-22T02:07:50.164Z,10.80
2023-01-22T02:12:58.253Z,12.77
2023-01-22T02:18:02.493Z,7.67
2023-01-22T02:23:08.180Z,7.20
2023-01-22T02:28:11.701Z,10.53
2023-01-22T02:33:17.817Z,12.70
2023-01-22T02:38:23.040Z,8.67
2023-01-22T02:43:27.013Z,9.63
2023-01-22T02:48:30.425Z,11.03
2023-01-22T02:53:35.257Z,11.40
2023-01-22T02:58:39.217Z,11.87
2023-01-22T03:03:42.714Z,12.43
2023-01-22T03:08:47.827Z,14.40
2023-01-22T03:14:08.591Z,13.93
2023-01-22T03:19:29.555Z,11.40
2023-01-22T03:24:34.816Z,11.63
2023-01-22T03:29:38.650Z,12.87
2023-01-22T03:34:44.095Z,14.73
2023-01-22T03:39:49.220Z,9.03
2023-01-22T03:45:02.643Z,10.20
2023-01-22T03:50:08.518Z,10.10
2023-01-22T03:55:13.418Z,7.83
2023-01-22T04:00:17.905Z,8.00
2023-01-22T04:05:22.248Z,15.43
2023-01-22T04:10:27.503Z,12.83
2023-01-22T04:15:30.915Z,10.37
2023-01-22T04:20:36.444Z,10.50
2023-01-22T04:26:04.331Z,8.90
2023-01-22T04:31:08.991Z,13.10
2023-01-22T04:36:18.743Z,15.70
2023-01-22T04:41:23.737Z,12.50
2023-01-22T04:46:27.205Z,11.07
2023-01-22T04:51:30.724Z,13.73
2023-01-22T04:56:35.648Z,11.83
2023-01-22T05:01:39.569Z,11.47
2023-01-22T05:06:43.433Z,11.63
2023-01-22T05:11:48.633Z,6.63
2023-01-22T05:16:52.854Z,8.17
2023-01-22T05:21:57.049Z,13.17
2023-01-22T05:27:02.246Z,12.90
2023-01-22T05:32:11.533Z,9.40
2023-01-22T05:37:21.267Z,16.13
2023-01-22T05:42:26.267Z,10.27
2023-01-22T05:47:30.396Z,10.70
2023-01-22T05:52:56.063Z,10.10
2023-01-22T05:58:01.257Z,13.50
2023-01-22T06:03:05.234Z,13.90
2023-01-22T06:08:19.196Z,11.80
2023-01-22T06:13:29.067Z,18.97
2023-01-22T06:18:36.854Z,9.73
2023-01-22T06:23:40.644Z,15.27
2023-01-22T06:28:46.774Z,20.57
2023-01-22T06:33:50.913Z,17.13
2023-01-22T06:38:54.494Z,17.80
2023-01-22T06:44:13.080Z,10.57
2023-01-22T06:49:16.960Z,11.10
2023-01-22T06:54:20.326Z,10.77
2023-01-22T06:59:25.183Z,19.53
2023-01-22T07:04:28.688Z,13.50
2023-01-22T07:09:32.048Z,18.23
2023-01-22T07:14:37.863Z,16.87
2023-01-22T07:19:41.658Z,14.47
2023-01-22T07:24:45.437Z,7.43
2023-01-22T07:29:51.071Z,9.67
2023-01-22T07:34:54.460Z,11.03
2023-01-22T07:39:58.088Z,15.93
2023-01-22T07:45:03.104Z,12.57
2023-01-22T07:50:08.050Z,13.70
2023-01-22T07:55:11.596Z,20.27
2023-01-22T08:00:17.706Z,10.03
2023-01-22T08:05:21.520Z,9.43
2023-01-22T08:10:25.176Z,16.13
2023-01-22T08:15:30.311Z,9.70
2023-01-22T08:20:33.656Z,10.37
2023-01-22T08:25:37.274Z,11.47
2023-01-22T08:30:46.820Z,15.97
2023-01-22T08:35:51.507Z,9.80
2023-01-22T08:40:55.141Z,7.00
2023-01-22T08:46:00.019Z,10.93
2023-01-22T08:51:03.692Z,9.67
2023-01-22T08:56:08.026Z,7.90
2023-01-22T09:01:18.211Z,9.90
2023-01-22T09:06:23.258Z,9.67
2023-01-22T09:11:26.601Z,9.70
2023-01-22T09:16:34.213Z,7.47
2023-01-22T09:21:38.484Z,12.37
2023-01-22T09:26:42.664Z,10.43
2023-01-22T09:31:47.477Z,7.90
2023-01-22T09:36:50.958Z,9.77
2023-01-22T09:41:56.784Z,11.63
2023-01-22T09:47:05.995Z,7.47
2023-01-22T09:52:12.340Z,7.10
2023-01-22T09:57:30.693Z,10.30
2023-01-22T10:02:42.656Z,11.87
2023-01-22T10:07:54.263Z,11.70
2023-01-22T10:13:02.445Z,11.63
2023-01-22T10:18:16.618Z,10.70
2023-01-22T10:23:22.762Z,13.60
2023-01-22T10:28:28.257Z,10.87
2023-01-22T10:33:44.467Z,10.43
2023-01-22T10:38:48.174Z,14.33
2023-01-22T10:43:51.593Z,12.27
2023-01-22T10:49:03.325Z,9.83
2023-01-22T10:54:22.431Z,9.97
2023-01-22T10:59:29.492Z,10.43
2023-01-22T11:04:35.336Z,12.60
2023-01-22T11:09:44.245Z,14.10
2023-01-22T11:14:51.788Z,12.13
2023-01-22T11:20:05.147Z,12.37
2023-01-22T11:25:12.179Z,15.00
2023-01-22T11:30:51.465Z,15.10
2023-01-22T11:36:01.799Z,13.63
2023-01-22T11:41:20.104Z,12.57
2023-01-22T11:46:45.398Z,9.13
2023-01-22T11:51:58.987Z,12.30
2023-01-22T11:57:18.961Z,14.07
2023-01-22T12:02:43.851Z,12.03
2023-01-22T12:08:03.839Z,14.20
2023-01-22T12:13:22.012Z,30.43
2023-01-22T12:19:06.585Z,17.17
2023-01-22T12:24:16.213Z,14.43
2023-01-22T12:29:24.808Z,17.37
2023-01-22T12:34:33.802Z,10.43
2023-01-22T12:39:44.852Z,13.57
2023-01-22T12:45:03.725Z,13.07
2023-01-22T12:50:18.824Z,16.37
2023-01-22T12:55:31.666Z,11.43
2023-01-22T13:00:36.953Z,10.97
2023-01-22T13:05:44.876Z,9.37
2023-01-22T13:10:56.866Z,15.27
2023-01-22T13:16:04.250Z,14.90
2023-01-22T13:21:10.871Z,20.27
2023-01-22T13:26:22.559Z,10.73
2023-01-22T13:31:26.643Z,13.77
2023-01-22T13:36:30.102Z,15.67
2023-01-22T13:41:37.232Z,18.73
2023-01-22T13:46:40.751Z,12.13
2023-01-22T13:51:44.581Z,11.40
2023-01-22T13:56:49.402Z,26.70
2023-01-22T14:01:54.624Z,23.33
2023-01-22T14:06:58.090Z,19.33
2023-01-22T14:12:15.058Z,15.80
2023-01-22T14:17:23.927Z,10.27
2023-01-22T14:22:27.650Z,12.23
2023-01-22T14:27:44.743Z,11.90
2023-01-22T14:32:48.539Z,12.93
2023-01-22T14:37:53.454Z,19.10
2023-01-22T14:43:01.008Z,17.37
2023-01-22T14:48:05.248Z,16.27
2023-01-22T14:53:08.939Z,16.37
2023-01-22T14:58:16.283Z,15.37
2023-01-22T15:03:19.846Z,11.93
2023-01-22T15:08:23.190Z,18.67
2023-01-22T15:13:28.177Z,14.37
2023-01-22T15:18:31.643Z,15.00
2023-01-22T15:23:36.648Z,14.33
2023-01-22T15:28:41.555Z,17.93
2023-01-22T15:33:44.996Z,18.87
2023-01-22T15:38:49.016Z,18.07
2023-01-22T15:43:56.782Z,21.23
2023-01-22T15:49:01.589Z,19.77
2023-01-22T15:54:07.245Z,17.50
2023-01-22T15:59:12.534Z,19.03
2023-01-22T16:04:16.233Z,18.00
2023-01-22T16:09:19.580Z,14.93
2023-01-22T16:14:24.699Z,17.90
2023-01-22T16:19:28.107Z,18.97
2023-01-22T16:24:32.935Z,19.10
2023-01-22T16:29:37.968Z,16.73
2023-01-22T16:34:41.653Z,17.20
2023-01-22T16:39:45.100Z,21.20
2023-01-22T16:44:50.204Z,20.10
2023-01-22T16:49:53.924Z,23.80
2023-01-22T16:54:57.461Z,21.03
2023-01-22T17:00:02.409Z,17.90
2023-01-22T17:05:13.031Z,21.37
2023-01-22T17:10:17.034Z,17.77
2023-01-22T17:15:22.455Z,24.60
2023-01-22T17:20:25.995Z,21.43
2023-01-22T17:25:29.716Z,24.03
2023-01-22T17:30:34.654Z,22.23
2023-01-22T17:35:38.362Z,23.57
2023-01-22T17:40:42.334Z,20.67
2023-01-22T17:45:49.206Z,23.33
2023-01-22T17:50:53.075Z,19.30
2023-01-22T17:55:56.961Z,18.07
2023-01-22T18:01:05.697Z,18.83
2023-01-22T18:06:09.790Z,18.17
2023-01-22T18:11:15.385Z,20.80
2023-01-22T18:16:21.409Z,25.00
2023-01-22T18:21:25.369Z,19.00
2023-01-22T18:26:29.389Z,19.30
2023-01-22T18:31:34.659Z,22.73
2023-01-22T18:36:40.553Z,25.33
2023-01-22T18:41:45.762Z,21.83
2023-01-22T18:46:52.467Z,28.77
2023-01-22T18:51:59.286Z,24.20
2023-01-22T18:57:05.222Z,28.93
2023-01-22T19:02:16.205Z,26.67
2023-01-22T19:07:20.337Z,28.47
2023-01-22T19:12:24.207Z,33.00
2023-01-22T19:17:29.308Z,22.07
2023-01-22T19:22:32.863Z,24.17
2023-01-22T19:27:36.383Z,27.83
2023-01-22T19:32:41.283Z,20.07
2023-01-22T19:37:44.902Z,33.10
2023-01-22T19:42:49.439Z,33.37
2023-01-22T19:47:57.454Z,27.37
2023-01-22T19:53:01.338Z,26.93
2023-01-22T19:58:06.179Z,20.67
2023-01-22T20:03:11.447Z,26.17
2023-01-22T20:08:14.969Z,25.17
2023-01-22T20:13:18.723Z,23.90
2023-01-22T20:18:23.970Z,28.13
2023-01-22T20:23:29.069Z,20.97
2023-01-22T20:28:33.675Z,23.63
2023-01-22T20:33:38.719Z,22.23
2023-01-22T20:38:42.220Z,26.50
2023-01-22T20:43:46.475Z,22.63
2023-01-22T20:48:52.506Z,27.83
2023-01-22T20:53:57.200Z,24.97
2023-01-22T20:59:02.816Z,20.70
2023-01-22T21:04:08.249Z,23.07
2023-01-22T21:09:12.503Z,22.90
2023-01-22T21:14:18.033Z,22.50
2023-01-22T21:19:26.103Z,23.33
2023-01-22T21:24:29.771Z,25.00
2023-01-22T21:29:33.164Z,22.30
2023-01-22T21:34:38.003Z,22.13
2023-01-22T21:39:45.183Z,19.60
2023-01-22T21:45:06.326Z,20.50
2023-01-22T21:50:12.275Z,26.80
2023-01-22T21:55:16.433Z,22.00
2023-01-22T22:00:20.928Z,30.13
2023-01-22T22:05:27.518Z,25.60
2023-01-22T22:10:31.146Z,27.83
2023-01-22T22:15:35.099Z,26.70
2023-01-22T22:20:40.031Z,20.83
2023-01-22T22:25:47.189Z,20.57
2023-01-22T22:30:50.836Z,24.80
2023-01-22T22:35:55.943Z,29.97
2023-01-22T22:41:01.134Z,28.67
2023-01-22T22:46:10.024Z,27.40
2023-01-22T22:51:16.973Z,29.27
2023-01-22T22:56:21.115Z,28.33
2023-01-22T23:01:26.547Z,23.70
2023-01-22T23:06:33.241Z,22.73
2023-01-22T23:11:45.684Z,31.90
2023-01-22T23:16:50.013Z,27.73
2023-01-22T23:21:57.015Z,31.90
2023-01-22T23:27:00.727Z,26.57
2023-01-22T23:32:04.108Z,32.67
2023-01-22T23:37:08.934Z,22.87
2023-01-22T23:42:12.434Z,25.73
2023-01-22T23:47:15.846Z,20.37
2023-01-22T23:52:21.161Z,25.10
2023-01-22T23:57:24.623Z,27.97
